Time;durP1;ratioP1;P1;durP2;ratioP2;P2;SDS_P1;SDS_P2;PMS_P1;PMS_P2;Temp;Humidity;BMP_temperature;BMP_pressure;BME280_temperature;BME280_humidity;BME280_pressure;Samples;Min_cycle;Max_cycle;Signal;HPM_P1;HPM_P2
2023/12/18 00:01:59;;;;;;;20.17;9.13;;;;;;;8.74;56.19;101572.75;5017170;27;96889;-77
2023/12/18 00:04:25;;;;;;;19.02;9.02;;;;;;;8.82;56.03;101592.75;5032289;27;97941;-77
2023/12/18 00:06:50;;;;;;;20.20;8.90;;;;;;;8.84;55.33;101593.63;5015901;27;101179;-77
2023/12/18 00:09:16;;;;;;;18.52;9.20;;;;;;;8.80;55.56;101585.78;5031981;27;97383;-78
2023/12/18 00:11:41;;;;;;;16.92;7.75;;;;;;;8.76;55.89;101577.09;5033084;27;97218;-78
2023/12/18 00:14:07;;;;;;;18.38;7.95;;;;;;;8.64;55.49;101558.84;5014819;27;100824;-77
2023/12/18 00:16:32;;;;;;;14.13;6.97;;;;;;;8.74;55.83;101576.22;5015993;27;100663;-77
2023/12/18 00:18:58;;;;;;;13.45;6.93;;;;;;;8.70;55.90;101574.53;5032478;27;96817;-77
2023/12/18 00:21:23;;;;;;;18.13;7.00;;;;;;;8.66;55.94;101562.31;5015491;27;97352;-78
2023/12/18 00:23:49;;;;;;;14.23;7.22;;;;;;;8.54;55.39;101544.06;5032113;27;98056;-77
2023/12/18 00:26:14;;;;;;;14.70;6.95;;;;;;;8.57;56.23;101559.75;5033069;27;97461;-77
2023/12/18 00:28:40;;;;;;;13.68;6.22;;;;;;;8.52;56.15;101541.50;5015179;27;97033;-79
2023/12/18 00:31:05;;;;;;;15.60;7.00;;;;;;;8.48;56.37;101549.34;5033246;27;97279;-77
2023/12/18 00:33:31;;;;;;;12.35;6.20;;;;;;;8.49;56.05;101562.41;5031314;27;101778;-79
2023/12/18 00:35:56;;;;;;;12.00;6.47;;;;;;;8.50;56.12;101539.75;5015474;27;101208;-78
2023/12/18 00:38:22;;;;;;;14.43;5.78;;;;;;;8.49;55.99;101541.47;5013595;27;96936;-77
2023/12/18 00:40:47;;;;;;;18.33;6.82;;;;;;;8.46;56.33;101536.25;5032766;27;96761;-77
2023/12/18 00:43:15;;;;;;;12.82;5.85;;;;;;;8.48;56.21;101537.13;5051281;27;97713;-77
2023/12/18 00:45:40;;;;;;;12.40;6.05;;;;;;;8.49;56.25;101538.00;5050861;27;97371;-78
2023/12/18 00:48:06;;;;;;;11.75;6.10;;;;;;;8.50;56.02;101522.28;5029579;28;97278;-77
2023/12/18 00:50:32;;;;;;;12.75;6.07;;;;;;;8.52;55.89;101523.16;5012340;28;96997;-77
2023/12/18 00:52:57;;;;;;;10.90;5.85;;;;;;;8.56;55.70;101535.34;5012675;28;98691;-77
2023/12/18 00:55:23;;;;;;;12.02;5.70;;;;;;;8.53;55.69;101530.13;5008854;28;101357;-77
2023/12/18 00:57:48;;;;;;;14.63;6.40;;;;;;;8.52;56.37;101535.34;5032910;28;97090;-78
2023/12/18 01:00:14;;;;;;;11.02;5.05;;;;;;;8.35;56.18;101512.75;5016091;28;97156;-78
2023/12/18 01:02:39;;;;;;;9.20;5.13;;;;;;;8.40;56.19;101515.38;5033167;28;97574;-77
2023/12/18 01:05:05;;;;;;;10.95;5.55;;;;;;;8.47;56.08;101514.47;5033271;28;99284;-77
2023/12/18 01:07:31;;;;;;;8.18;5.18;;;;;;;8.49;56.05;101511.81;5014984;28;97237;-77
2023/12/18 01:09:58;;;;;;;9.48;4.95;;;;;;;8.42;56.25;101497.91;5032973;28;97333;-78
2023/12/18 01:12:27;;;;;;;7.45;4.28;;;;;;;8.54;56.28;101512.66;5013332;28;97604;-77
2023/12/18 01:14:52;;;;;;;10.00;4.65;;;;;;;8.48;56.02;101503.09;5009352;28;97844;-77
2023/12/18 01:17:18;;;;;;;7.85;3.85;;;;;;;8.50;55.94;101517.06;4995847;28;96835;-77
2023/12/18 01:19:43;;;;;;;11.93;5.03;;;;;;;8.50;55.93;101509.22;5026101;28;97165;-77
2023/12/18 01:22:09;;;;;;;10.18;4.93;;;;;;;8.42;56.14;101483.97;5031713;28;97340;-77
2023/12/18 01:24:34;;;;;;;12.60;4.55;;;;;;;8.35;56.11;101473.50;5012172;28;97917;-77
2023/12/18 01:27:00;;;;;;;10.18;4.53;;;;;;;8.59;56.54;101511.75;5032842;28;96877;-77
2023/12/18 01:29:25;;;;;;;7.53;4.28;;;;;;;8.59;56.44;101509.13;5015695;28;97177;-77
2023/12/18 01:31:51;;;;;;;10.50;5.03;;;;;;;8.49;56.54;101496.97;5033904;28;98088;-77
2023/12/18 01:34:16;;;;;;;9.50;5.00;;;;;;;8.35;56.67;101478.75;5031649;28;97363;-78
2023/12/18 01:36:42;;;;;;;7.57;4.40;;;;;;;8.47;56.88;101488.31;5015832;28;96839;-78
2023/12/18 01:39:07;;;;;;;11.18;5.25;;;;;;;8.39;56.30;101483.09;5032494;28;96884;-77
2023/12/18 01:41:33;;;;;;;9.27;4.55;;;;;;;8.56;56.63;101501.31;5015560;28;97607;-77
2023/12/18 01:43:58;;;;;;;9.75;4.53;;;;;;;8.51;56.57;101510.06;5014344;28;99558;-78
2023/12/18 01:46:24;;;;;;;9.88;4.20;;;;;;;8.52;57.15;101510.09;5032249;28;96844;-77
2023/12/18 01:48:51;;;;;;;11.18;4.32;;;;;;;8.55;56.95;101506.53;5014809;28;96853;-77
2023/12/18 01:51:17;;;;;;;7.28;3.78;;;;;;;8.58;57.11;101511.75;4997817;28;101061;-77
2023/12/18 01:53:45;;;;;;;8.88;4.35;;;;;;;8.50;56.53;101509.22;5014642;28;97850;-77
2023/12/18 01:56:14;;;;;;;9.35;4.65;;;;;;;8.54;56.55;101508.31;5032347;28;96970;-77
2023/12/18 01:58:40;;;;;;;8.10;4.13;;;;;;;8.55;56.72;101493.47;5015444;28;97190;-77
2023/12/18 02:01:06;;;;;;;16.08;5.00;;;;;;;8.47;57.42;101485.69;5031633;28;97588;-77
2023/12/18 02:03:33;;;;;;;10.05;3.35;;;;;;;8.52;57.45;101488.25;5014361;28;98026;-79
2023/12/18 02:05:59;;;;;;;8.73;3.70;;;;;;;8.52;57.31;101483.00;5015299;28;96847;-77
2023/12/18 02:08:25;;;;;;;7.70;3.90;;;;;;;8.34;57.71;101461.28;5026232;28;97022;-77
2023/12/18 02:10:52;;;;;;;7.53;3.80;;;;;;;8.48;57.44;101483.94;4997636;28;101611;-77
2023/12/18 02:13:18;;;;;;;10.18;4.13;;;;;;;8.51;57.23;101487.38;5031291;28;97430;-77
2023/12/18 02:15:43;;;;;;;6.30;3.63;;;;;;;8.49;56.92;101478.66;5014871;28;96833;-77
2023/12/18 02:18:09;;;;;;;7.35;3.60;;;;;;;8.56;57.19;101483.00;4998550;28;96870;-77
2023/12/18 02:20:34;;;;;;;10.05;4.07;;;;;;;8.44;56.86;101456.91;5013788;28;97871;-77
2023/12/18 02:23:00;;;;;;;8.27;4.72;;;;;;;8.55;57.02;101490.84;5031366;28;97861;-77
2023/12/18 02:25:25;;;;;;;7.18;3.78;;;;;;;8.49;57.19;101480.41;5014614;28;96994;-77
2023/12/18 02:27:51;;;;;;;9.02;4.20;;;;;;;8.42;57.80;101476.13;5015412;28;97292;-77
2023/12/18 02:30:19;;;;;;;7.65;3.60;;;;;;;8.44;57.55;101477.84;5013728;28;100958;-78
2023/12/18 02:32:45;;;;;;;8.52;4.15;;;;;;;8.40;57.95;101473.50;5031289;28;97362;-77
2023/12/18 02:35:11;;;;;;;7.30;4.15;;;;;;;8.47;57.90;101484.81;5013541;28;97255;-77
2023/12/18 02:37:36;;;;;;;9.88;4.60;;;;;;;8.24;58.45;101467.47;5011727;28;96906;-77
2023/12/18 02:40:02;;;;;;;8.02;4.13;;;;;;;8.36;58.14;101484.84;5014197;28;98083;-78
2023/12/18 02:42:28;;;;;;;7.60;3.88;;;;;;;8.42;57.61;101477.00;5031259;28;97235;-77
2023/12/18 02:44:54;;;;;;;8.63;4.07;;;;;;;8.46;57.62;101480.44;5014393;28;97000;-77
2023/12/18 02:47:19;;;;;;;8.90;4.40;;;;;;;8.49;58.03;101483.03;5034326;27;97108;-77
2023/12/18 02:49:45;;;;;;;7.57;4.03;;;;;;;8.49;57.83;101483.03;5016876;27;97900;-77
2023/12/18 02:52:10;;;;;;;10.65;4.97;;;;;;;8.41;58.11;101466.50;5034382;27;97384;-77
2023/12/18 02:54:37;;;;;;;7.35;3.95;;;;;;;8.32;57.88;101457.84;5034117;27;97307;-77
2023/12/18 02:57:02;;;;;;;6.28;3.67;;;;;;;8.29;57.75;101451.72;5018304;27;96839;-77
2023/12/18 02:59:28;;;;;;;7.60;3.63;;;;;;;8.43;58.08;101468.25;4997701;27;99130;-77
2023/12/18 03:01:53;;;;;;;10.23;3.90;;;;;;;8.42;57.83;101470.88;5034634;27;97395;-78
2023/12/18 03:04:19;;;;;;;8.05;3.80;;;;;;;8.36;57.58;101471.75;5033991;27;96818;-77
2023/12/18 03:06:48;;;;;;;7.78;3.92;;;;;;;8.32;58.31;101462.19;5033094;27;96736;-77
2023/12/18 03:09:13;;;;;;;7.55;4.10;;;;;;;8.32;58.30;101456.94;5021879;27;97518;-78
2023/12/18 03:11:40;;;;;;;8.45;4.28;;;;;;;8.23;58.31;101442.22;5017494;27;97514;-78
2023/12/18 03:14:06;;;;;;;9.35;5.40;;;;;;;8.28;58.82;101455.25;5000663;27;97341;-77
2023/12/18 03:16:32;;;;;;;9.75;5.10;;;;;;;8.32;58.55;101464.78;5046018;27;96932;-78
2023/12/18 03:18:57;;;;;;;6.38;4.32;;;;;;;8.30;58.09;101448.25;5015606;27;100808;-78
2023/12/18 03:21:22;;;;;;;9.43;5.00;;;;;;;8.28;58.62;101448.25;5015231;27;101557;-78
2023/12/18 03:23:48;;;;;;;7.43;3.90;;;;;;;8.24;58.53;101449.16;5029662;27;96754;-77
2023/12/18 03:26:13;;;;;;;5.82;4.15;;;;;;;8.31;58.50;101456.09;5045764;27;97335;-78
2023/12/18 03:28:39;;;;;;;8.15;3.90;;;;;;;8.21;58.60;101435.25;5007649;27;101157;-77
2023/12/18 03:31:04;;;;;;;6.68;3.70;;;;;;;8.37;58.48;101447.31;5016404;27;101112;-77
2023/12/18 03:33:30;;;;;;;7.85;3.40;;;;;;;8.45;58.21;101457.78;5031311;27;96797;-77
2023/12/18 03:35:55;;;;;;;11.35;3.97;;;;;;;8.42;57.92;101435.13;5052203;27;97263;-77
2023/12/18 03:38:22;;;;;;;10.02;4.30;;;;;;;8.55;57.74;101454.19;5014355;27;97787;-78
2023/12/18 03:40:47;;;;;;;8.45;4.07;;;;;;;8.56;58.07;101462.06;5049186;27;97894;-78
2023/12/18 03:43:13;;;;;;;7.35;4.18;;;;;;;8.50;57.82;101456.00;5015903;27;96864;-78
2023/12/18 03:45:38;;;;;;;6.15;3.80;;;;;;;8.45;57.48;101449.94;5030619;27;97397;-77
2023/12/18 03:48:04;;;;;;;9.27;3.92;;;;;;;8.35;58.15;101451.72;5015125;27;101986;-78
2023/12/18 03:50:30;;;;;;;6.90;3.42;;;;;;;8.43;58.25;101447.31;5048400;27;97381;-77
2023/12/18 03:52:55;;;;;;;5.82;3.50;;;;;;;8.32;57.60;101430.78;5016368;27;96819;-77
2023/12/18 03:55:21;;;;;;;6.70;3.83;;;;;;;8.51;57.56;101457.72;5031511;27;97447;-77
2023/12/18 03:57:46;;;;;;;5.65;3.67;;;;;;;8.54;57.30;101452.47;5031522;27;97472;-77
2023/12/18 04:00:12;;;;;;;5.93;3.40;;;;;;;8.45;57.22;101439.47;5031949;27;97851;-77
2023/12/18 04:02:38;;;;;;;9.43;3.95;;;;;;;8.51;57.53;101461.22;5032296;27;97443;-77
2023/12/18 04:05:04;;;;;;;6.30;3.95;;;;;;;8.49;57.61;101457.72;5032253;27;97393;-78
2023/12/18 04:07:29;;;;;;;10.32;4.40;;;;;;;8.51;57.24;101458.59;5047397;27;97519;-77
2023/12/18 04:09:55;;;;;;;8.20;5.05;;;;;;;8.52;57.31;101465.59;5051261;27;97546;-77
2023/12/18 04:12:20;;;;;;;13.65;5.32;;;;;;;8.45;57.47;101465.63;5032330;27;96951;-77
2023/12/18 04:14:46;;;;;;;15.13;6.43;;;;;;;8.41;58.02;101466.50;5015570;27;97604;-77
2023/12/18 04:17:11;;;;;;;14.50;5.78;;;;;;;8.41;57.66;101463.91;4999131;27;101388;-77
2023/12/18 04:19:37;;;;;;;9.52;5.43;;;;;;;8.49;57.42;101459.47;5032242;27;97434;-77
2023/12/18 04:22:02;;;;;;;11.80;5.50;;;;;;;8.43;57.53;101454.28;5051387;27;97354;-77
2023/12/18 04:24:28;;;;;;;10.15;4.85;;;;;;;8.46;56.99;101464.75;5032578;27;96846;-78
2023/12/18 04:26:54;;;;;;;11.35;5.35;;;;;;;8.43;57.51;101460.41;5017338;27;102284;-77
2023/12/18 04:29:20;;;;;;;14.02;6.57;;;;;;;8.45;57.50;101474.34;5019047;27;101492;-77
2023/12/18 04:31:47;;;;;;;11.80;6.13;;;;;;;8.42;57.22;101473.50;5019635;27;97223;-77
2023/12/18 04:34:12;;;;;;;12.25;5.85;;;;;;;8.26;57.74;101446.53;5036479;27;97535;-77
2023/12/18 04:36:39;;;;;;;10.52;5.55;;;;;;;8.36;57.30;101469.16;5018694;27;101276;-78
2023/12/18 04:39:04;;;;;;;15.07;6.22;;;;;;;8.26;57.65;101451.75;5035791;27;97614;-78
2023/12/18 04:41:30;;;;;;;11.55;4.97;;;;;;;8.35;57.41;101472.66;5019375;27;96942;-77
2023/12/18 04:43:55;;;;;;;15.00;6.80;;;;;;;8.33;57.27;101475.25;5013385;27;96946;-77
2023/12/18 04:46:21;;;;;;;13.65;6.72;;;;;;;8.15;57.41;101457.94;5053289;27;98581;-77
2023/12/18 04:48:46;;;;;;;12.15;6.18;;;;;;;8.24;57.23;101461.38;5018211;27;101243;-77
2023/12/18 04:51:12;;;;;;;11.70;6.38;;;;;;;8.27;56.86;101463.97;5035907;27;97068;-77
2023/12/18 04:53:37;;;;;;;8.82;5.68;;;;;;;8.26;56.67;101464.84;5019035;27;97032;-77
2023/12/18 04:56:06;;;;;;;9.32;5.32;;;;;;;8.20;57.20;101483.19;5019219;27;97443;-78
2023/12/18 04:58:35;;;;;;;12.70;6.28;;;;;;;8.19;57.44;101476.22;5035411;27;97469;-77
2023/12/18 05:01:04;;;;;;;10.20;5.65;;;;;;;8.20;56.54;101454.41;5033082;27;98014;-77
2023/12/18 05:03:30;;;;;;;11.30;6.20;;;;;;;8.15;57.04;101454.47;5018238;27;96823;-77
2023/12/18 05:05:55;;;;;;;9.65;5.93;;;;;;;8.06;56.95;101455.38;5018803;27;100552;-77
2023/12/18 05:08:21;;;;;;;10.40;4.95;;;;;;;8.12;57.39;101467.56;5019963;27;101459;-77
2023/12/18 05:10:47;;;;;;;8.55;5.45;;;;;;;8.16;57.25;101456.19;5035739;27;96973;-77
2023/12/18 05:13:12;;;;;;;11.13;5.90;;;;;;;8.13;57.08;101471.91;5001905;27;96883;-77
2023/12/18 05:15:38;;;;;;;8.60;5.28;;;;;;;8.09;57.37;101476.28;5017994;27;98313;-76
2023/12/18 05:18:05;;;;;;;12.63;6.72;;;;;;;8.03;57.33;101464.97;5054429;27;97864;-78
2023/12/18 05:20:30;;;;;;;16.33;7.63;;;;;;;8.01;57.58;101471.97;5012797;27;97197;-77
2023/12/18 05:22:56;;;;;;;12.57;7.60;;;;;;;8.07;57.29;101479.78;5028039;27;98169;-77
2023/12/18 05:25:21;;;;;;;12.52;7.47;;;;;;;8.01;57.85;101470.22;5014699;27;99168;-77
2023/12/18 05:27:47;;;;;;;13.48;7.43;;;;;;;7.98;57.46;101467.63;5031615;27;101321;-77
2023/12/18 05:30:12;;;;;;;12.63;7.50;;;;;;;7.88;57.37;101453.75;5034484;27;96862;-75
2023/12/18 05:32:38;;;;;;;12.70;8.10;;;;;;;8.07;57.29;101482.41;5051328;27;96893;-78
2023/12/18 05:35:04;;;;;;;15.68;8.13;;;;;;;7.92;57.50;101459.81;5028712;27;98061;-78
2023/12/18 05:37:29;;;;;;;13.38;8.10;;;;;;;8.01;57.55;101478.06;5002864;27;100965;-78
2023/12/18 05:39:55;;;;;;;13.63;7.90;;;;;;;8.00;57.86;101476.34;5026127;27;96904;-77
2023/12/18 05:42:20;;;;;;;14.65;8.18;;;;;;;7.99;57.67;101471.97;5026585;27;97186;-78
2023/12/18 05:44:46;;;;;;;14.45;8.00;;;;;;;7.98;57.94;101475.47;5028516;27;101456;-78
2023/12/18 05:47:11;;;;;;;13.68;7.82;;;;;;;7.89;58.16;101454.59;5016215;27;101182;-77
2023/12/18 05:49:37;;;;;;;14.20;8.00;;;;;;;7.89;57.83;101452.00;5033695;27;96802;-77
2023/12/18 05:52:03;;;;;;;15.13;8.55;;;;;;;8.04;57.60;101464.13;5026983;27;97422;-77
2023/12/18 05:54:29;;;;;;;13.00;8.02;;;;;;;8.02;58.16;101466.72;5032673;27;97602;-77
2023/12/18 05:56:54;;;;;;;12.30;8.18;;;;;;;8.01;57.68;101462.38;5014023;27;101564;-77
2023/12/18 05:59:20;;;;;;;12.93;7.70;;;;;;;8.10;57.40;101466.69;5016722;27;96810;-75
2023/12/18 06:01:46;;;;;;;17.27;8.23;;;;;;;8.00;57.89;101444.06;5016924;27;97442;-75
2023/12/18 06:04:11;;;;;;;11.88;7.93;;;;;;;8.07;57.78;101456.25;5050605;27;97582;-75
2023/12/18 06:06:37;;;;;;;13.00;8.77;;;;;;;8.06;57.98;101457.13;5050865;27;97308;-72
2023/12/18 06:09:03;;;;;;;18.20;8.27;;;;;;;8.01;58.06;101464.13;4999720;27;97643;-73
2023/12/18 06:11:28;;;;;;;14.65;8.85;;;;;;;7.98;57.85;101456.31;5051248;27;96726;-77
2023/12/18 06:13:53;;;;;;;13.68;7.95;;;;;;;7.86;57.78;101433.72;5046453;27;97501;-80
2023/12/18 06:16:19;;;;;;;13.80;7.35;;;;;;;8.02;57.75;101465.84;5025886;27;98021;-78
2023/12/18 06:18:45;;;;;;;15.15;8.73;;;;;;;8.04;57.57;101474.56;5047882;27;96692;-78
2023/12/18 06:21:10;;;;;;;12.20;7.35;;;;;;;7.94;57.76;101465.88;5024314;27;96833;-78
2023/12/18 06:23:36;;;;;;;13.32;7.07;;;;;;;7.88;58.01;101447.63;5044159;27;97433;-77
2023/12/18 06:26:03;;;;;;;11.55;7.32;;;;;;;7.91;58.04;101458.94;5041373;27;98495;-77
2023/12/18 06:28:29;;;;;;;13.77;7.68;;;;;;;7.94;57.81;101469.41;5031134;27;96870;-77
2023/12/18 06:30:54;;;;;;;14.63;7.80;;;;;;;7.87;58.22;101462.44;5031460;27;98250;-77
2023/12/18 06:33:20;;;;;;;16.42;7.47;;;;;;;7.93;57.76;101475.47;5013778;27;97908;-77
2023/12/18 06:35:45;;;;;;;12.23;7.05;;;;;;;7.78;58.07;101443.31;5048281;27;97355;-76
2023/12/18 06:38:11;;;;;;;12.55;7.72;;;;;;;7.86;58.57;101463.31;5031327;27;97425;-76
2023/12/18 06:40:36;;;;;;;14.60;6.80;;;;;;;7.69;58.34;101439.88;5044222;27;96726;-79
2023/12/18 06:43:02;;;;;;;14.77;7.82;;;;;;;7.77;58.38;101467.75;5029165;27;97561;-76
2023/12/18 06:45:27;;;;;;;12.10;6.20;;;;;;;7.78;58.73;101461.63;5048116;27;97372;-77
2023/12/18 06:47:53;;;;;;;12.60;7.32;;;;;;;7.65;58.87;101446.00;5049426;27;96711;-76
2023/12/18 06:50:18;;;;;;;13.52;8.10;;;;;;;7.84;58.67;101466.81;5014713;27;97625;-74
2023/12/18 06:52:44;;;;;;;15.27;8.77;;;;;;;7.89;58.68;101471.16;5037445;27;97598;-76
2023/12/18 06:55:09;;;;;;;13.50;7.93;;;;;;;7.91;58.12;101455.44;5044974;27;97840;-74
2023/12/18 06:57:35;;;;;;;19.33;9.15;;;;;;;7.82;58.62;101451.13;5022364;27;98268;-80
2023/12/18 07:00:00;;;;;;;12.85;7.60;;;;;;;7.75;58.58;101451.19;5028527;27;96904;-74
2023/12/18 07:02:28;;;;;;;11.77;7.38;;;;;;;7.74;58.98;101463.38;5030700;27;97434;-81
2023/12/18 07:04:54;;;;;;;18.63;9.52;;;;;;;7.74;58.77;101465.09;5026466;27;101223;-78
2023/12/18 07:07:19;;;;;;;15.80;7.53;;;;;;;7.68;58.39;101445.97;5048268;27;96772;-75
2023/12/18 07:09:45;;;;;;;14.50;8.07;;;;;;;7.80;58.81;101468.59;5028849;27;97118;-76
2023/12/18 07:12:10;;;;;;;15.23;7.38;;;;;;;7.72;58.62;101463.38;5020389;27;97393;-76
2023/12/18 07:14:38;;;;;;;14.70;7.70;;;;;;;7.71;58.63;101464.25;5006026;28;101381;-77
2023/12/18 07:17:04;;;;;;;13.00;7.95;;;;;;;7.64;58.82;101449.47;5015338;27;97371;-77
2023/12/18 07:19:29;;;;;;;14.50;8.00;;;;;;;7.83;58.83;101471.19;5015611;27;96835;-78
2023/12/18 07:21:55;;;;;;;13.10;7.53;;;;;;;7.82;58.74;101472.03;5002658;27;97405;-77
2023/12/18 07:24:20;;;;;;;20.17;8.05;;;;;;;7.71;58.28;101450.34;5015696;28;101226;-76
2023/12/18 07:26:46;;;;;;;16.77;8.55;;;;;;;7.78;58.57;101472.94;5025913;27;97167;-78
2023/12/18 07:29:11;;;;;;;19.00;9.77;;;;;;;7.83;58.86;101484.25;5044495;27;96928;-76
2023/12/18 07:31:37;;;;;;;17.08;8.45;;;;;;;7.63;58.90;101447.75;5033594;27;96904;-77
2023/12/18 07:34:03;;;;;;;15.90;8.00;;;;;;;7.74;58.74;101466.00;5015900;27;101552;-77
2023/12/18 07:36:29;;;;;;;13.57;8.38;;;;;;;7.81;58.96;101466.84;5034272;27;96727;-75
2023/12/18 07:38:54;;;;;;;13.90;7.57;;;;;;;7.89;58.39;101475.53;5052320;27;97457;-79
2023/12/18 07:41:19;;;;;;;14.27;8.20;;;;;;;7.91;58.79;101482.47;5016727;27;100739;-76
2023/12/18 07:43:45;;;;;;;12.82;7.80;;;;;;;7.96;58.38;101476.34;5033487;27;97214;-76
2023/12/18 07:46:18;;;;;;;18.05;9.20;;;;;;;8.00;58.34;101458.03;5030556;27;97351;-76
2023/12/18 07:48:47;;;;;;;13.63;8.48;;;;;;;8.29;57.77;101472.66;5022504;27;96919;-77
2023/12/18 07:51:12;;;;;;;13.35;7.82;;;;;;;8.44;57.79;101482.22;5044237;27;97627;-77
2023/12/18 07:53:38;;;;;;;18.08;8.38;;;;;;;8.53;57.40;101463.84;5021619;27;98361;-77
2023/12/18 07:56:04;;;;;;;18.45;9.40;;;;;;;8.93;57.33;101480.09;5042616;27;97329;-77
2023/12/18 07:58:30;;;;;;;13.98;8.57;;;;;;;9.33;55.88;101481.44;5019065;27;98079;-78
2023/12/18 08:00:55;;;;;;;12.93;8.32;;;;;;;9.80;55.21;101483.50;5027030;27;101295;-77
2023/12/18 08:03:21;;;;;;;15.57;9.60;;;;;;;10.34;54.01;101481.06;5033687;27;98177;-77
2023/12/18 08:05:46;;;;;;;20.08;8.85;;;;;;;10.62;53.41;101468.41;5031347;27;96834;-77
2023/12/18 08:08:12;;;;;;;24.05;9.35;;;;;;;10.95;52.23;101484.50;5014616;27;97050;-77
2023/12/18 08:10:37;;;;;;;14.90;8.00;;;;;;;11.30;51.71;101481.22;5027977;27;97487;-77
2023/12/18 08:13:03;;;;;;;15.88;8.90;;;;;;;11.51;50.75;101489.59;5050227;27;97722;-77
2023/12/18 08:15:29;;;;;;;19.50;9.35;;;;;;;11.44;51.24;101470.47;5026590;27;98120;-77
2023/12/18 08:17:54;;;;;;;18.90;8.73;;;;;;;11.50;50.56;101454.56;5002223;27;97295;-78
2023/12/18 08:20:20;;;;;;;15.05;8.80;;;;;;;11.97;50.04;101484.31;5035093;27;97886;-79
2023/12/18 08:22:45;;;;;;;17.08;10.38;;;;;;;12.24;49.57;101501.25;5014084;27;99659;-77
2023/12/18 08:25:11;;;;;;;14.50;8.77;;;;;;;12.14;49.12;101507.63;5019389;27;97626;-77
2023/12/18 08:27:36;;;;;;;17.95;9.88;;;;;;;12.17;49.52;101485.66;5017374;27;97272;-78
2023/12/18 08:30:08;;;;;;;12.68;8.20;;;;;;;12.40;48.76;101498.28;5035772;27;97578;-77
2023/12/18 08:32:34;;;;;;;18.30;9.32;;;;;;;12.64;48.19;101496.84;5019678;27;101170;-77
2023/12/18 08:35:00;;;;;;;17.88;9.95;;;;;;;13.02;47.89;101487.13;5036216;27;96895;-78
2023/12/18 08:37:27;;;;;;;16.70;9.30;;;;;;;13.14;47.56;101486.81;5002927;27;97423;-78
2023/12/18 08:39:53;;;;;;;18.05;8.77;;;;;;;13.40;46.77;101486.13;5019463;27;97555;-77
2023/12/18 08:42:18;;;;;;;21.83;8.70;;;;;;;13.67;46.48;101497.72;5035287;27;97396;-77
2023/12/18 08:44:44;;;;;;;20.80;9.23;;;;;;;13.88;46.25;101485.69;5046589;27;97592;-77
2023/12/18 08:47:09;;;;;;;16.42;9.48;;;;;;;14.54;45.23;101461.66;5029913;27;97087;-79
2023/12/18 08:49:35;;;;;;;17.02;8.57;;;;;;;14.84;44.42;101487.09;5027285;27;97438;-80
2023/12/18 08:52:00;;;;;;;15.00;8.85;;;;;;;14.54;44.67;101465.16;5000719;27;101856;-77
2023/12/18 08:54:26;;;;;;;21.58;9.43;;;;;;;15.13;43.95;101480.81;5025953;27;97450;-82
2023/12/18 08:56:51;;;;;;;17.73;8.52;;;;;;;15.49;43.47;101475.16;5008672;27;97314;-83
2023/12/18 08:59:17;;;;;;;15.57;8.60;;;;;;;15.69;43.18;101484.19;5007673;27;101148;-77
2023/12/18 09:01:43;;;;;;;17.77;8.27;;;;;;;15.51;43.09;101494.47;5027733;27;97463;-78
2023/12/18 09:04:09;;;;;;;14.38;8.32;;;;;;;15.37;43.75;101488.81;5044396;27;98008;-78
2023/12/18 09:06:38;;;;;;;14.05;7.63;;;;;;;15.48;43.29;101488.44;5027712;27;98652;-78
2023/12/18 09:09:05;;;;;;;11.68;6.53;;;;;;;15.44;43.79;101482.38;5025132;27;98538;-81
2023/12/18 09:11:33;;;;;;;12.65;6.60;;;;;;;15.44;43.84;101468.28;5018032;27;100866;-78
2023/12/18 09:14:00;;;;;;;11.88;7.32;;;;;;;15.47;43.91;101468.16;5018232;27;97322;-79
2023/12/18 09:16:26;;;;;;;12.65;6.85;;;;;;;15.75;43.62;101481.31;5051567;27;97370;-80
2023/12/18 09:18:52;;;;;;;14.05;6.65;;;;;;;15.80;43.69;101479.34;5050040;27;98517;-79
2023/12/18 09:21:17;;;;;;;12.63;6.57;;;;;;;15.91;43.49;101479.81;5033297;27;98428;-79
2023/12/18 09:23:44;;;;;;;12.93;5.80;;;;;;;16.02;43.23;101467.00;5017080;27;96926;-79
2023/12/18 09:26:12;;;;;;;10.82;6.32;;;;;;;16.10;42.84;101468.50;4997021;27;96925;-81
2023/12/18 09:28:38;;;;;;;14.23;6.28;;;;;;;16.27;42.84;101466.91;5027327;27;98123;-79
2023/12/18 09:31:05;;;;;;;12.88;5.38;;;;;;;16.04;43.03;101449.28;5035446;27;97389;-81
2023/12/18 09:33:31;;;;;;;8.52;5.45;;;;;;;16.04;43.39;101451.94;5028098;28;97523;-80
2023/12/18 09:35:57;;;;;;;9.63;5.60;;;;;;;15.86;43.77;101451.78;5018145;27;96977;-79
2023/12/18 09:38:23;;;;;;;9.93;5.97;;;;;;;15.89;43.84;101470.19;5016763;27;99540;-80
2023/12/18 09:40:48;;;;;;;10.27;6.15;;;;;;;15.69;44.37;101470.94;5012317;27;101254;-79
2023/12/18 09:43:17;;;;;;;13.07;6.07;;;;;;;15.50;44.82;101483.94;5018041;27;96792;-79
2023/12/18 09:45:46;;;;;;;9.27;5.50;;;;;;;15.37;45.11;101488.81;5018822;27;96925;-80
2023/12/18 09:48:11;;;;;;;11.95;6.60;;;;;;;15.37;45.29;101478.25;5014150;27;98931;-80
2023/12/18 09:50:37;;;;;;;13.27;5.63;;;;;;;15.73;50.01;101468.09;5020875;27;97849;-76
2023/12/18 09:53:08;;;;;;;9.75;5.65;;;;;;;16.08;48.68;101465.91;5024179;27;96786;-77
2023/12/18 09:55:34;;;;;;;7.93;3.87;;;;;;;15.97;49.35;101429.28;5030730;27;97584;-79
2023/12/18 09:58:00;;;;;;;6.95;3.78;;;;;;;16.39;48.59;101459.41;5017599;27;97499;-77
2023/12/18 10:00:27;;;;;;;5.18;3.47;;;;;;;16.54;46.09;101453.47;5016584;27;100511;-83
2023/12/18 10:02:54;;;;;;;4.95;2.75;;;;;;;16.20;44.77;101451.31;5031064;27;97505;-82
2023/12/18 10:05:20;;;;;;;4.75;3.00;;;;;;;15.97;45.18;101449.56;5012234;27;97051;-80
2023/12/18 10:07:46;;;;;;;5.22;2.50;;;;;;;15.56;44.69;101430.78;5051341;27;97468;-81
2023/12/18 10:10:11;;;;;;;6.20;2.85;;;;;;;15.47;44.76;101447.88;5032543;27;97291;-81
2023/12/18 10:12:38;;;;;;;5.45;3.03;;;;;;;15.39;44.83;101426.13;5050933;27;96693;-83
2023/12/18 10:15:08;;;;;;;6.40;2.50;;;;;;;15.30;45.31;101439.69;5033103;27;97081;-82
2023/12/18 10:17:34;;;;;;;9.25;2.90;;;;;;;15.17;45.44;101410.16;5026956;27;99213;-82
2023/12/18 10:20:02;;;;;;;3.63;2.20;;;;;;;15.15;45.30;101410.25;5023640;27;101375;-81
2023/12/18 10:22:28;;;;;;;8.13;2.72;;;;;;;15.21;45.02;101435.56;5024811;27;96773;-82
2023/12/18 10:24:57;;;;;;;4.15;2.67;;;;;;;15.15;45.03;101427.88;5043989;27;96918;-86
2023/12/18 10:27:22;;;;;;;3.00;2.47;;;;;;;15.04;44.98;101422.97;5041590;27;98177;-86
2023/12/18 10:29:48;;;;;;;6.55;2.97;;;;;;;14.97;44.94;101424.09;5051321;27;98671;-82
2023/12/18 10:32:13;;;;;;;6.65;2.80;;;;;;;14.87;44.67;101401.56;5018484;27;96824;-82
2023/12/18 10:34:39;;;;;;;5.28;2.40;;;;;;;14.84;45.34;101407.81;5035204;27;97222;-82
2023/12/18 10:37:05;;;;;;;5.75;2.25;;;;;;;14.97;45.38;101434.66;5034709;27;101653;-82
2023/12/18 10:39:32;;;;;;;8.52;2.50;;;;;;;14.65;45.22;101406.69;5016346;27;99260;-82
2023/12/18 10:42:04;;;;;;;6.13;2.92;;;;;;;14.54;45.29;101427.31;5007055;27;96706;-82
2023/12/18 10:44:32;;;;;;;6.07;3.05;;;;;;;14.60;45.33;101411.25;5018182;27;97111;-82
2023/12/18 10:46:59;;;;;;;5.80;3.38;;;;;;;14.36;45.88;101394.41;5017979;27;97409;-82
2023/12/18 10:49:26;;;;;;;7.15;2.92;;;;;;;14.13;45.78;101400.44;5033506;27;97373;-82
2023/12/18 10:51:52;;;;;;;5.75;2.58;;;;;;;14.11;46.04;101391.69;5034674;27;96896;-82
2023/12/18 10:54:18;;;;;;;9.88;3.08;;;;;;;14.10;45.94;101397.91;5016903;27;97116;-82
2023/12/18 10:56:44;;;;;;;3.97;2.30;;;;;;;14.19;45.63;101411.66;5017765;27;97452;-82
2023/12/18 10:59:11;;;;;;;8.02;3.33;;;;;;;14.12;45.75;101409.28;5034569;27;97724;-82
2023/12/18 11:01:37;;;;;;;4.18;2.55;;;;;;;14.00;46.24;101398.19;5018049;27;96828;-82
2023/12/18 11:04:02;;;;;;;6.80;2.70;;;;;;;14.03;46.72;101399.88;5031120;27;96990;-82
2023/12/18 11:06:28;;;;;;;7.25;2.85;;;;;;;13.88;47.07;101379.25;5017189;27;97588;-82
2023/12/18 11:08:54;;;;;;;7.50;2.78;;;;;;;13.93;46.69;101393.13;5016752;27;100940;-81
2023/12/18 11:11:21;;;;;;;6.68;2.80;;;;;;;14.04;46.54;101394.53;5034601;27;96854;-82
2023/12/18 11:14:08;;;;;;;7.45;2.70;;;;;;;13.86;46.77;101395.13;5033477;27;97272;-82
2023/12/18 11:17:12;;;;;;;4.75;2.50;;;;;;;13.74;47.20;101384.94;5034074;27;101416;-82
2023/12/18 11:19:51;;;;;;;3.72;2.67;;;;;;;13.51;47.54;101333.72;5006218;28;97593;-81